Observations for AMSTERDAM SCHIPHOL, Netherlands (EHAM)

EHAM 180525Z 22013KT 180V240 9999 -DZ SCT009 OVC015 16/14 Q1017 BECMG BKN012 TEMPO 6000 
EHAM 180455Z 21011KT 9999 FEW009 SCT013 BKN028 16/14 Q1017 BECMG BKN014 
EHAM 180425Z 22011KT 9999 FEW007 BKN011 BKN013 16/14 Q1017 NOSIG
EHAM 180355Z 22012KT 9000 -DZ FEW007 SCT010 BKN012 15/14 Q1017 TEMPO 4000 BKN007
EHAM 180325Z 21010KT 9999 -DZ FEW007 SCT009 BKN012 15/14 Q1017 TEMPO 4000 BKN007
EHAM 180255Z 21010KT 9000 FEW006 SCT007 BKN010 15/14 Q1017 NOSIG
EHAM 180225Z 20011KT 5000 -DZ FEW005 BKN007 BKN010 14/14 Q1017 BECMG 8000 BKN012
EHAM 180155Z 20011KT 3000 -DZ FEW005 BKN007 BKN011 14/13 Q1017 TEMPO 8000 BKN012
EHAM 180125Z 20012KT 4800 -DZ FEW005 BKN007 BKN011 14/13 Q1017 TEMPO 8000 BKN012
EHAM 180055Z 20011KT 8000 -DZ FEW006 BKN007 BKN011 14/13 Q1017 TEMPO 6000 BECMG BKN012  
EHAM 180025Z 21011KT 180V240 6000 -DZ FEW006 SCT007 BKN011 14/13 Q1017 TEMPO 4000 BKN007
EHAM 172355Z 20011KT 170V230 9999 -DZ FEW014 BKN016 BKN019 15/12 Q1018 BECMG BKN014 
EHAM 172325Z 23015KT 200V260 9999 FEW016 SCT017 BKN022 16/12 Q1018 BECMG BKN017 
EHAM 172255Z 23011KT 9999 FEW018 BKN022 16/11 Q1018 NOSIG   
EHAM 172225Z 23010KT 200V260 9999 FEW020 15/11 Q1018 NOSIG  
EHAM 172155Z 23015KT 9999 FEW023 16/10 Q1018 NOSIG  
EHAM 172125Z 23013KT 190V270 9999 FEW020 16/10 Q1018 NOSIG  
EHAM 172055Z 23013KT 190V260 9999 FEW020 15/10 Q1018 NOSIG  
EHAM 172025Z 23012KT 190V260 9999 FEW020 16/10 Q1018 NOSIG  
EHAM 171955Z 24013KT 9999 FEW020 16/11 Q1018 NOSIG  
EHAM 171925Z 23013KT 200V260 9999 FEW020 16/10 Q1018 NOSIG  
EHAM 171855Z 24013KT 210V270 9999 FEW020 17/10 Q1018 NOSIG  
EHAM 171825Z 24012KT 200V270 9999 FEW020 16/10 Q1018 NOSIG  
EHAM 171755Z 24011KT 210V280 9999 FEW020 17/11 Q1017 NOSIG  
EHAM 171725Z 25012KT 210V290 9999 FEW020 17/10 Q1017 NOSIG  
EHAM 171655Z 26011KT 220V280 9999 FEW025TCU 17/11 Q1017 NOSIG   
EHAM 171625Z 25013KT 220V280 9999 FEW028CB 18/10 Q1017 NOSIG
EHAM 171555Z 25012KT 220V290 9999 FEW028CB 18/10 Q1017 NOSIG
EHAM 171525Z 25013KT 210V290 9999 FEW028 17/10 Q1017 NOSIG  
EHAM 171455Z 25013KT 9999 FEW026 18/10 Q1017 NOSIG  
EHAM 171425Z 25015KT 220V290 9999 FEW026 18/11 Q1017 NOSIG  
EHAM 171355Z 25014KT 210V290 9999 FEW026 18/11 Q1017 NOSIG  
EHAM 171325Z 24015KT 210V290 9999 FEW026 18/11 Q1017 NOSIG  
EHAM 171255Z 25014KT 200V300 9999 FEW026 18/11 Q1017 NOSIG  
EHAM 171225Z 24012KT 210V280 9999 FEW026 18/11 Q1016 NOSIG  
EHAM 171155Z 25012KT 210V280 9999 FEW026 18/12 Q1016 NOSIG  
EHAM 171125Z 25013KT 220V290 9999 FEW024 18/12 Q1016 NOSIG  
EHAM 171055Z 24013KT 210V270 9999 FEW022 18/12 Q1016 NOSIG  
EHAM 171025Z 25013KT 220V280 9999 FEW020 17/12 Q1016 NOSIG  
EHAM 170955Z 25014KT 9999 SCT020 17/11 Q1016 NOSIG  
EHAM 170925Z 25014KT 220V280 9999 SCT020 17/11 Q1016 NOSIG  
EHAM 170855Z 23013KT 210V270 9999 FEW020 16/11 Q1016 NOSIG  
EHAM 170825Z 25014KT 210V280 9999 FEW018 17/11 Q1015 NOSIG  
EHAM 170755Z 24012KT 200V280 9999 FEW020 16/11 Q1015 NOSIG  
EHAM 170725Z 25012KT 210V300 9999 FEW020 16/11 Q1015 NOSIG  
EHAM 170655Z 25013KT 210V280 9999 FEW020 16/11 Q1014 NOSIG  
EHAM 170625Z 24014KT 200V270 9999 FEW020 BKN048 16/11 Q1014 NOSIG   
EHAM 170555Z 24012KT 9999 FEW019 BKN048 16/11 Q1014 NOSIG   
EHAM 170525Z 24013KT 200V270 9999 FEW018 SCT024 16/11 Q1014 TEMPO BKN017
EHAM 170455Z 24013KT 210V270 9999 FEW017 SCT022 BKN045 15/11 Q1014 TEMPO BKN017